sensor_id;sensor_type;location;lat;lon;timestamp;P1;durP1;ratioP1;P2;durP2;ratioP2
69197;SDS011;56311;50.298;8.514;2024-03-23T00:54:00;32.4;;;20.7;;
69197;SDS011;56311;50.298;8.514;2024-03-23T00:56:00;33.6;;;21.1;;
69197;SDS011;56311;50.298;8.514;2024-03-23T00:58:00;31.7;;;20.0;;
69197;SDS011;56311;50.298;8.514;2024-03-23T01:00:00;32.3;;;20.3;;
69197;SDS011;56311;50.298;8.514;2024-03-23T01:02:00;35.0;;;21.1;;
69197;SDS011;56311;50.298;8.514;2024-03-23T01:04:00;33.9;;;21.5;;
69197;SDS011;56311;50.298;8.514;2024-03-23T01:06:00;32.1;;;21.2;;
69197;SDS011;56311;50.298;8.514;2024-03-23T01:08:00;33.7;;;22.0;;
69197;SDS011;56311;50.298;8.514;2024-03-23T01:10:00;35.7;;;22.2;;
69197;SDS011;56311;50.298;8.514;2024-03-23T01:12:00;32.6;;;21.6;;
69197;SDS011;56311;50.298;8.514;2024-03-23T01:14:00;33.6;;;21.6;;
69197;SDS011;56311;50.298;8.514;2024-03-23T01:16:00;32.7;;;21.0;;
69197;SDS011;56311;50.298;8.514;2024-03-23T01:18:00;31.9;;;20.5;;
69197;SDS011;56311;50.298;8.514;2024-03-23T01:20:00;32.3;;;19.9;;
69197;SDS011;56311;50.298;8.514;2024-03-23T01:22:00;33.6;;;20.3;;
69197;SDS011;56311;50.298;8.514;2024-03-23T01:24:00;32.6;;;20.1;;
69197;SDS011;56311;50.298;8.514;2024-03-23T01:26:00;32.4;;;20.3;;
69197;SDS011;56311;50.298;8.514;2024-03-23T01:28:00;33.3;;;20.5;;
69197;SDS011;56311;50.298;8.514;2024-03-23T01:30:00;33.5;;;20.3;;
69197;SDS011;56311;50.298;8.514;2024-03-23T01:32:00;32.0;;;19.6;;
69197;SDS011;56311;50.298;8.514;2024-03-23T01:34:00;31.7;;;19.8;;
69197;SDS011;56311;50.298;8.514;2024-03-23T01:36:00;31.3;;;20.1;;
69197;SDS011;56311;50.298;8.514;2024-03-23T01:38:00;34.7;;;21.3;;
69197;SDS011;56311;50.298;8.514;2024-03-23T01:40:00;34.5;;;21.2;;
69197;SDS011;56311;50.298;8.514;2024-03-23T01:42:00;31.5;;;20.5;;
69197;SDS011;56311;50.298;8.514;2024-03-23T01:44:00;34.0;;;21.2;;
69197;SDS011;56311;50.298;8.514;2024-03-23T01:46:00;34.1;;;20.4;;
69197;SDS011;56311;50.298;8.514;2024-03-23T01:48:00;34.6;;;21.5;;
69197;SDS011;56311;50.298;8.514;2024-03-23T01:50:00;33.8;;;21.5;;
69197;SDS011;56311;50.298;8.514;2024-03-23T01:52:00;34.2;;;21.3;;
69197;SDS011;56311;50.298;8.514;2024-03-23T01:54:00;36.3;;;21.3;;
69197;SDS011;56311;50.298;8.514;2024-03-23T01:56:00;33.0;;;20.7;;
69197;SDS011;56311;50.298;8.514;2024-03-23T01:58:00;32.0;;;20.4;;
69197;SDS011;56311;50.298;8.514;2024-03-23T02:00:00;33.9;;;20.8;;
69197;SDS011;56311;50.298;8.514;2024-03-23T02:02:00;34.1;;;20.9;;
69197;SDS011;56311;50.298;8.514;2024-03-23T02:04:00;36.3;;;21.1;;
69197;SDS011;56311;50.298;8.514;2024-03-23T02:06:00;34.2;;;20.9;;
69197;SDS011;56311;50.298;8.514;2024-03-23T02:08:00;31.8;;;19.8;;
69197;SDS011;56311;50.298;8.514;2024-03-23T02:10:00;34.2;;;20.6;;
69197;SDS011;56311;50.298;8.514;2024-03-23T02:12:01;32.9;;;20.2;;
69197;SDS011;56311;50.298;8.514;2024-03-23T02:14:00;33.2;;;20.8;;
69197;SDS011;56311;50.298;8.514;2024-03-23T02:16:00;32.3;;;20.5;;
69197;SDS011;56311;50.298;8.514;2024-03-23T02:18:00;29.8;;;20.4;;
69197;SDS011;56311;50.298;8.514;2024-03-23T02:20:00;31.5;;;20.1;;
69197;SDS011;56311;50.298;8.514;2024-03-23T02:22:00;30.4;;;20.2;;
69197;SDS011;56311;50.298;8.514;2024-03-23T02:24:00;31.4;;;20.0;;
69197;SDS011;56311;50.298;8.514;2024-03-23T02:26:00;30.2;;;19.8;;
69197;SDS011;56311;50.298;8.514;2024-03-23T02:28:00;31.7;;;20.4;;
69197;SDS011;56311;50.298;8.514;2024-03-23T02:30:00;33.2;;;20.4;;
69197;SDS011;56311;50.298;8.514;2024-03-23T02:32:00;32.8;;;20.2;;
69197;SDS011;56311;50.298;8.514;2024-03-23T02:34:00;32.7;;;20.5;;
69197;SDS011;56311;50.298;8.514;2024-03-23T02:36:00;33.8;;;20.9;;
69197;SDS011;56311;50.298;8.514;2024-03-23T02:38:00;33.2;;;20.2;;
69197;SDS011;56311;50.298;8.514;2024-03-23T02:40:00;30.6;;;20.4;;
69197;SDS011;56311;50.298;8.514;2024-03-23T02:42:00;30.5;;;19.8;;
69197;SDS011;56311;50.298;8.514;2024-03-23T02:44:00;32.4;;;21.1;;
69197;SDS011;56311;50.298;8.514;2024-03-23T02:46:00;33.7;;;21.2;;
69197;SDS011;56311;50.298;8.514;2024-03-23T02:48:00;33.8;;;21.2;;
69197;SDS011;56311;50.298;8.514;2024-03-23T02:50:00;33.7;;;21.5;;
69197;SDS011;56311;50.298;8.514;2024-03-23T02:52:00;34.1;;;21.4;;
69197;SDS011;56311;50.298;8.514;2024-03-23T02:54:00;32.8;;;21.1;;
69197;SDS011;56311;50.298;8.514;2024-03-23T02:56:00;35.0;;;21.3;;
69197;SDS011;56311;50.298;8.514;2024-03-23T02:58:00;35.3;;;22.0;;
69197;SDS011;56311;50.298;8.514;2024-03-23T03:00:00;33.3;;;21.9;;
69197;SDS011;56311;50.298;8.514;2024-03-23T03:02:00;37.6;;;21.4;;
69197;SDS011;56311;50.298;8.514;2024-03-23T03:04:00;32.6;;;21.2;;
69197;SDS011;56311;50.298;8.514;2024-03-23T03:06:00;32.3;;;20.7;;
69197;SDS011;56311;50.298;8.514;2024-03-23T03:08:00;35.9;;;21.2;;
69197;SDS011;56311;50.298;8.514;2024-03-23T03:10:00;32.4;;;20.7;;
69197;SDS011;56311;50.298;8.514;2024-03-23T03:12:00;35.3;;;21.7;;
69197;SDS011;56311;50.298;8.514;2024-03-23T03:14:00;34.3;;;21.1;;
69197;SDS011;56311;50.298;8.514;2024-03-23T03:16:00;34.4;;;21.2;;
69197;SDS011;56311;50.298;8.514;2024-03-23T03:18:00;35.0;;;21.6;;
69197;SDS011;56311;50.298;8.514;2024-03-23T03:20:00;35.8;;;22.0;;
69197;SDS011;56311;50.298;8.514;2024-03-23T03:22:00;34.0;;;21.8;;
69197;SDS011;56311;50.298;8.514;2024-03-23T03:24:00;34.9;;;22.3;;
69197;SDS011;56311;50.298;8.514;2024-03-23T03:26:00;36.0;;;22.4;;
69197;SDS011;56311;50.298;8.514;2024-03-23T03:28:00;36.4;;;22.0;;
69197;SDS011;56311;50.298;8.514;2024-03-23T03:30:00;36.2;;;22.7;;
69197;SDS011;56311;50.298;8.514;2024-03-23T03:32:00;36.6;;;21.8;;
69197;SDS011;56311;50.298;8.514;2024-03-23T03:34:00;35.5;;;21.7;;
69197;SDS011;56311;50.298;8.514;2024-03-23T03:36:00;34.5;;;21.5;;
69197;SDS011;56311;50.298;8.514;2024-03-23T03:38:00;32.4;;;20.9;;
69197;SDS011;56311;50.298;8.514;2024-03-23T03:40:00;34.3;;;21.8;;
69197;SDS011;56311;50.298;8.514;2024-03-23T03:42:00;34.0;;;21.7;;
69197;SDS011;56311;50.298;8.514;2024-03-23T03:44:00;36.6;;;22.7;;
69197;SDS011;56311;50.298;8.514;2024-03-23T03:46:00;47.3;;;26.0;;
69197;SDS011;56311;50.298;8.514;2024-03-23T03:48:00;45.6;;;27.1;;
69197;SDS011;56311;50.298;8.514;2024-03-23T03:50:00;39.4;;;23.3;;
69197;SDS011;56311;50.298;8.514;2024-03-23T03:52:00;30.0;;;18.0;;
69197;SDS011;56311;50.298;8.514;2024-03-23T03:54:00;26.0;;;14.0;;
69197;SDS011;56311;50.298;8.514;2024-03-23T03:56:00;23.1;;;14.0;;
69197;SDS011;56311;50.298;8.514;2024-03-23T03:58:00;24.2;;;14.3;;
69197;SDS011;56311;50.298;8.514;2024-03-23T04:00:00;27.5;;;15.2;;
69197;SDS011;56311;50.298;8.514;2024-03-23T04:02:00;21.5;;;12.6;;
69197;SDS011;56311;50.298;8.514;2024-03-23T04:04:00;20.3;;;12.0;;
69197;SDS011;56311;50.298;8.514;2024-03-23T04:06:00;18.1;;;9.4;;
69197;SDS011;56311;50.298;8.514;2024-03-23T04:08:00;15.8;;;8.4;;
69197;SDS011;56311;50.298;8.514;2024-03-23T04:10:00;14.0;;;8.0;;
69197;SDS011;56311;50.298;8.514;2024-03-23T04:12:00;12.5;;;7.0;;
69197;SDS011;56311;50.298;8.514;2024-03-23T04:14:00;10.7;;;5.3;;
69197;SDS011;56311;50.298;8.514;2024-03-23T04:16:00;9.4;;;5.1;;
69197;SDS011;56311;50.298;8.514;2024-03-23T04:18:00;8.7;;;4.3;;
69197;SDS011;56311;50.298;8.514;2024-03-23T04:20:00;6.8;;;3.5;;
69197;SDS011;56311;50.298;8.514;2024-03-23T04:22:00;6.0;;;2.6;;
69197;SDS011;56311;50.298;8.514;2024-03-23T04:24:00;4.6;;;2.4;;
69197;SDS011;56311;50.298;8.514;2024-03-23T04:26:02;5.3;;;2.5;;
69197;SDS011;56311;50.298;8.514;2024-03-23T04:28:00;4.5;;;2.0;;
69197;SDS011;56311;50.298;8.514;2024-03-23T04:30:00;4.6;;;2.3;;
69197;SDS011;56311;50.298;8.514;2024-03-23T04:32:00;4.6;;;1.9;;
69197;SDS011;56311;50.298;8.514;2024-03-23T04:34:00;3.2;;;1.4;;
69197;SDS011;56311;50.298;8.514;2024-03-23T04:36:00;3.0;;;1.1;;
69197;SDS011;56311;50.298;8.514;2024-03-23T04:38:00;3.1;;;1.2;;
69197;SDS011;56311;50.298;8.514;2024-03-23T04:40:00;3.5;;;1.1;;
69197;SDS011;56311;50.298;8.514;2024-03-23T04:42:00;2.8;;;0.9;;
69197;SDS011;56311;50.298;8.514;2024-03-23T04:44:00;2.8;;;0.9;;
69197;SDS011;56311;50.298;8.514;2024-03-23T04:46:00;3.0;;;1.1;;
69197;SDS011;56311;50.298;8.514;2024-03-23T04:48:00;3.4;;;1.1;;
69197;SDS011;56311;50.298;8.514;2024-03-23T04:50:00;2.6;;;1.0;;
69197;SDS011;56311;50.298;8.514;2024-03-23T04:52:00;2.7;;;0.9;;
69197;SDS011;56311;50.298;8.514;2024-03-23T04:54:00;2.9;;;1.0;;
69197;SDS011;56311;50.298;8.514;2024-03-23T04:56:01;3.0;;;1.2;;
69197;SDS011;56311;50.298;8.514;2024-03-23T04:58:00;3.3;;;1.1;;
69197;SDS011;56311;50.298;8.514;2024-03-23T05:00:00;3.5;;;1.0;;
69197;SDS011;56311;50.298;8.514;2024-03-23T05:02:00;3.3;;;1.3;;
69197;SDS011;56311;50.298;8.514;2024-03-23T05:04:00;3.1;;;1.2;;
69197;SDS011;56311;50.298;8.514;2024-03-23T05:06:00;3.9;;;1.4;;
69197;SDS011;56311;50.298;8.514;2024-03-23T05:08:00;3.7;;;1.3;;
69197;SDS011;56311;50.298;8.514;2024-03-23T05:10:00;3.3;;;1.2;;
69197;SDS011;56311;50.298;8.514;2024-03-23T05:12:00;3.0;;;1.3;;
69197;SDS011;56311;50.298;8.514;2024-03-23T05:14:00;3.3;;;1.5;;
69197;SDS011;56311;50.298;8.514;2024-03-23T05:16:00;4.0;;;1.6;;
69197;SDS011;56311;50.298;8.514;2024-03-23T05:18:00;3.4;;;1.6;;
69197;SDS011;56311;50.298;8.514;2024-03-23T05:20:00;4.0;;;1.7;;
69197;SDS011;56311;50.298;8.514;2024-03-23T05:22:00;4.7;;;1.8;;
69197;SDS011;56311;50.298;8.514;2024-03-23T05:24:00;3.8;;;1.8;;
69197;SDS011;56311;50.298;8.514;2024-03-23T05:26:00;4.0;;;1.9;;
69197;SDS011;56311;50.298;8.514;2024-03-23T05:28:00;4.5;;;1.8;;
69197;SDS011;56311;50.298;8.514;2024-03-23T05:30:00;4.0;;;1.7;;
69197;SDS011;56311;50.298;8.514;2024-03-23T05:32:00;5.3;;;2.1;;
69197;SDS011;56311;50.298;8.514;2024-03-23T05:34:00;4.9;;;2.0;;
69197;SDS011;56311;50.298;8.514;2024-03-23T05:36:00;4.5;;;1.8;;
69197;SDS011;56311;50.298;8.514;2024-03-23T05:38:00;3.5;;;1.6;;
69197;SDS011;56311;50.298;8.514;2024-03-23T05:40:00;3.4;;;1.3;;
69197;SDS011;56311;50.298;8.514;2024-03-23T05:42:00;3.2;;;1.4;;
69197;SDS011;56311;50.298;8.514;2024-03-23T05:44:00;3.9;;;1.6;;
69197;SDS011;56311;50.298;8.514;2024-03-23T05:46:00;3.4;;;1.0;;
69197;SDS011;56311;50.298;8.514;2024-03-23T05:48:00;2.6;;;0.9;;
69197;SDS011;56311;50.298;8.514;2024-03-23T05:50:00;2.5;;;0.8;;
69197;SDS011;56311;50.298;8.514;2024-03-23T05:52:00;2.6;;;0.8;;
69197;SDS011;56311;50.298;8.514;2024-03-23T05:54:00;2.5;;;0.7;;
69197;SDS011;56311;50.298;8.514;2024-03-23T05:56:00;3.2;;;0.7;;
69197;SDS011;56311;50.298;8.514;2024-03-23T05:58:00;2.0;;;0.5;;
69197;SDS011;56311;50.298;8.514;2024-03-23T06:00:00;2.3;;;0.5;;
69197;SDS011;56311;50.298;8.514;2024-03-23T06:02:00;2.1;;;0.5;;
69197;SDS011;56311;50.298;8.514;2024-03-23T06:04:00;2.6;;;0.5;;
69197;SDS011;56311;50.298;8.514;2024-03-23T06:06:00;1.3;;;0.4;;
69197;SDS011;56311;50.298;8.514;2024-03-23T06:08:00;1.8;;;0.4;;
69197;SDS011;56311;50.298;8.514;2024-03-23T06:10:00;1.2;;;0.3;;
69197;SDS011;56311;50.298;8.514;2024-03-23T06:12:00;1.2;;;0.3;;
69197;SDS011;56311;50.298;8.514;2024-03-23T06:14:00;1.5;;;0.4;;
69197;SDS011;56311;50.298;8.514;2024-03-23T06:16:00;1.0;;;0.3;;
69197;SDS011;56311;50.298;8.514;2024-03-23T06:18:00;1.1;;;0.3;;
69197;SDS011;56311;50.298;8.514;2024-03-23T06:20:00;1.3;;;0.3;;
69197;SDS011;56311;50.298;8.514;2024-03-23T06:22:00;1.5;;;0.4;;
69197;SDS011;56311;50.298;8.514;2024-03-23T06:24:00;1.4;;;0.3;;
69197;SDS011;56311;50.298;8.514;2024-03-23T06:26:00;2.7;;;0.5;;
69197;SDS011;56311;50.298;8.514;2024-03-23T06:28:00;2.0;;;0.7;;
69197;SDS011;56311;50.298;8.514;2024-03-23T06:30:00;1.6;;;0.4;;
69197;SDS011;56311;50.298;8.514;2024-03-23T06:32:00;1.9;;;0.4;;
69197;SDS011;56311;50.298;8.514;2024-03-23T06:34:00;1.7;;;0.4;;
69197;SDS011;56311;50.298;8.514;2024-03-23T06:36:00;2.5;;;0.4;;
69197;SDS011;56311;50.298;8.514;2024-03-23T06:38:00;3.0;;;0.5;;
69197;SDS011;56311;50.298;8.514;2024-03-23T06:40:00;2.4;;;0.5;;
69197;SDS011;56311;50.298;8.514;2024-03-23T06:42:00;2.1;;;0.6;;
69197;SDS011;56311;50.298;8.514;2024-03-23T06:44:00;2.6;;;0.5;;
69197;SDS011;56311;50.298;8.514;2024-03-23T06:46:01;2.4;;;0.6;;
69197;SDS011;56311;50.298;8.514;2024-03-23T06:48:00;2.9;;;0.7;;
69197;SDS011;56311;50.298;8.514;2024-03-23T06:50:00;3.3;;;0.9;;
69197;SDS011;56311;50.298;8.514;2024-03-23T06:52:00;4.9;;;0.7;;
69197;SDS011;56311;50.298;8.514;2024-03-23T06:54:00;4.1;;;1.0;;
69197;SDS011;56311;50.298;8.514;2024-03-23T06:56:00;4.1;;;1.0;;
69197;SDS011;56311;50.298;8.514;2024-03-23T06:58:00;6.3;;;1.2;;
69197;SDS011;56311;50.298;8.514;2024-03-23T07:00:00;4.9;;;1.4;;
69197;SDS011;56311;50.298;8.514;2024-03-23T07:02:00;4.2;;;1.2;;
69197;SDS011;56311;50.298;8.514;2024-03-23T07:04:00;5.8;;;1.3;;
69197;SDS011;56311;50.298;8.514;2024-03-23T07:06:00;5.9;;;1.3;;
69197;SDS011;56311;50.298;8.514;2024-03-23T07:08:00;5.9;;;1.4;;
69197;SDS011;56311;50.298;8.514;2024-03-23T07:10:00;6.3;;;1.9;;
69197;SDS011;56311;50.298;8.514;2024-03-23T07:12:00;5.4;;;1.7;;
69197;SDS011;56311;50.298;8.514;2024-03-23T07:14:00;6.4;;;1.6;;
69197;SDS011;56311;50.298;8.514;2024-03-23T07:16:01;8.8;;;1.7;;
69197;SDS011;56311;50.298;8.514;2024-03-23T07:18:00;7.9;;;1.7;;
69197;SDS011;56311;50.298;8.514;2024-03-23T07:20:00;8.5;;;2.2;;
69197;SDS011;56311;50.298;8.514;2024-03-23T07:22:00;9.0;;;2.5;;
69197;SDS011;56311;50.298;8.514;2024-03-23T07:24:00;9.3;;;2.4;;
69197;SDS011;56311;50.298;8.514;2024-03-23T07:26:00;7.2;;;1.9;;
69197;SDS011;56311;50.298;8.514;2024-03-23T07:28:00;9.7;;;2.5;;
69197;SDS011;56311;50.298;8.514;2024-03-23T07:30:00;8.5;;;2.8;;
69197;SDS011;56311;50.298;8.514;2024-03-23T07:32:00;10.3;;;3.2;;
69197;SDS011;56311;50.298;8.514;2024-03-23T07:34:00;9.1;;;2.9;;
69197;SDS011;56311;50.298;8.514;2024-03-23T07:36:00;8.7;;;3.1;;
69197;SDS011;56311;50.298;8.514;2024-03-23T07:38:00;9.5;;;3.1;;
69197;SDS011;56311;50.298;8.514;2024-03-23T07:40:00;11.2;;;3.9;;
69197;SDS011;56311;50.298;8.514;2024-03-23T07:42:00;9.8;;;4.2;;
69197;SDS011;56311;50.298;8.514;2024-03-23T07:44:00;10.9;;;3.7;;
69197;SDS011;56311;50.298;8.514;2024-03-23T07:46:00;43.2;;;30.7;;
69197;SDS011;56311;50.298;8.514;2024-03-23T07:48:00;11.1;;;5.1;;
69197;SDS011;56311;50.298;8.514;2024-03-23T07:50:05;12.1;;;5.2;;
69197;SDS011;56311;50.298;8.514;2024-03-23T07:52:00;15.7;;;4.7;;
69197;SDS011;56311;50.298;8.514;2024-03-23T07:54:00;13.0;;;4.3;;
69197;SDS011;56311;50.298;8.514;2024-03-23T07:56:00;10.4;;;4.4;;
69197;SDS011;56311;50.298;8.514;2024-03-23T07:58:00;11.5;;;4.9;;
69197;SDS011;56311;50.298;8.514;2024-03-23T08:00:00;10.4;;;4.6;;
69197;SDS011;56311;50.298;8.514;2024-03-23T08:02:00;10.3;;;4.7;;
69197;SDS011;56311;50.298;8.514;2024-03-23T08:04:00;10.9;;;5.1;;
69197;SDS011;56311;50.298;8.514;2024-03-23T08:06:06;11.3;;;5.1;;
69197;SDS011;56311;50.298;8.514;2024-03-23T08:08:00;12.7;;;5.0;;
69197;SDS011;56311;50.298;8.514;2024-03-23T08:10:00;11.8;;;4.9;;
69197;SDS011;56311;50.298;8.514;2024-03-23T08:12:00;10.9;;;5.2;;
69197;SDS011;56311;50.298;8.514;2024-03-23T08:14:00;13.7;;;4.9;;
69197;SDS011;56311;50.298;8.514;2024-03-23T08:16:01;11.5;;;5.5;;
69197;SDS011;56311;50.298;8.514;2024-03-23T08:18:01;27.9;;;15.7;;
69197;SDS011;56311;50.298;8.514;2024-03-23T08:20:01;20.9;;;12.8;;
69197;SDS011;56311;50.298;8.514;2024-03-23T08:22:00;15.0;;;6.6;;
69197;SDS011;56311;50.298;8.514;2024-03-23T08:24:00;16.1;;;7.1;;
69197;SDS011;56311;50.298;8.514;2024-03-23T08:26:00;13.2;;;5.8;;
69197;SDS011;56311;50.298;8.514;2024-03-23T08:28:00;12.5;;;5.8;;
69197;SDS011;56311;50.298;8.514;2024-03-23T08:30:00;12.7;;;5.5;;
69197;SDS011;56311;50.298;8.514;2024-03-23T08:32:00;12.7;;;5.3;;
69197;SDS011;56311;50.298;8.514;2024-03-23T08:34:00;15.1;;;5.1;;
69197;SDS011;56311;50.298;8.514;2024-03-23T08:36:00;12.9;;;5.5;;
69197;SDS011;56311;50.298;8.514;2024-03-23T08:38:00;11.9;;;5.2;;
69197;SDS011;56311;50.298;8.514;2024-03-23T08:40:00;12.4;;;5.5;;
69197;SDS011;56311;50.298;8.514;2024-03-23T08:42:00;14.3;;;5.6;;
69197;SDS011;56311;50.298;8.514;2024-03-23T08:44:00;13.0;;;5.4;;
69197;SDS011;56311;50.298;8.514;2024-03-23T08:46:03;15.5;;;5.0;;
69197;SDS011;56311;50.298;8.514;2024-03-23T08:48:00;10.5;;;4.6;;
69197;SDS011;56311;50.298;8.514;2024-03-23T08:50:00;14.8;;;5.3;;
69197;SDS011;56311;50.298;8.514;2024-03-23T08:52:00;12.0;;;4.8;;
69197;SDS011;56311;50.298;8.514;2024-03-23T08:54:00;12.7;;;4.7;;
69197;SDS011;56311;50.298;8.514;2024-03-23T08:56:01;11.4;;;4.5;;
69197;SDS011;56311;50.298;8.514;2024-03-23T08:58:00;11.8;;;4.4;;
69197;SDS011;56311;50.298;8.514;2024-03-23T09:00:00;11.4;;;4.5;;
69197;SDS011;56311;50.298;8.514;2024-03-23T09:02:01;13.2;;;4.4;;
69197;SDS011;56311;50.298;8.514;2024-03-23T09:04:00;14.1;;;4.6;;
69197;SDS011;56311;50.298;8.514;2024-03-23T09:06:02;13.7;;;4.3;;
69197;SDS011;56311;50.298;8.514;2024-03-23T09:08:00;15.0;;;4.6;;
69197;SDS011;56311;50.298;8.514;2024-03-23T09:10:00;14.2;;;4.0;;
69197;SDS011;56311;50.298;8.514;2024-03-23T09:12:00;13.5;;;4.2;;
69197;SDS011;56311;50.298;8.514;2024-03-23T09:14:00;15.6;;;4.2;;
69197;SDS011;56311;50.298;8.514;2024-03-23T09:16:00;18.7;;;4.5;;
69197;SDS011;56311;50.298;8.514;2024-03-23T09:18:02;13.3;;;4.1;;
69197;SDS011;56311;50.298;8.514;2024-03-23T09:20:00;11.9;;;3.8;;
69197;SDS011;56311;50.298;8.514;2024-03-23T09:22:00;13.9;;;3.7;;
69197;SDS011;56311;50.298;8.514;2024-03-23T09:24:00;13.7;;;4.1;;
69197;SDS011;56311;50.298;8.514;2024-03-23T09:26:02;16.6;;;4.5;;
69197;SDS011;56311;50.298;8.514;2024-03-23T09:28:01;11.7;;;3.5;;
69197;SDS011;56311;50.298;8.514;2024-03-23T09:30:01;12.4;;;3.6;;
69197;SDS011;56311;50.298;8.514;2024-03-23T09:32:00;12.4;;;4.0;;
69197;SDS011;56311;50.298;8.514;2024-03-23T09:34:00;12.4;;;3.6;;
69197;SDS011;56311;50.298;8.514;2024-03-23T09:36:02;11.9;;;3.5;;
69197;SDS011;56311;50.298;8.514;2024-03-23T09:38:01;10.7;;;3.2;;
69197;SDS011;56311;50.298;8.514;2024-03-23T09:40:00;11.5;;;3.0;;
69197;SDS011;56311;50.298;8.514;2024-03-23T09:42:00;10.8;;;2.7;;
69197;SDS011;56311;50.298;8.514;2024-03-23T09:44:00;12.3;;;3.7;;
69197;SDS011;56311;50.298;8.514;2024-03-23T09:46:00;20.4;;;10.3;;
69197;SDS011;56311;50.298;8.514;2024-03-23T09:48:00;12.4;;;3.1;;
69197;SDS011;56311;50.298;8.514;2024-03-23T09:50:00;12.1;;;2.9;;
69197;SDS011;56311;50.298;8.514;2024-03-23T09:52:00;11.3;;;2.9;;
69197;SDS011;56311;50.298;8.514;2024-03-23T09:54:00;11.4;;;2.6;;
69197;SDS011;56311;50.298;8.514;2024-03-23T09:56:00;10.3;;;2.8;;
69197;SDS011;56311;50.298;8.514;2024-03-23T09:58:00;8.8;;;2.8;;
69197;SDS011;56311;50.298;8.514;2024-03-23T10:00:00;9.5;;;2.2;;
69197;SDS011;56311;50.298;8.514;2024-03-23T10:02:00;8.3;;;2.0;;
69197;SDS011;56311;50.298;8.514;2024-03-23T10:04:00;9.2;;;1.9;;
69197;SDS011;56311;50.298;8.514;2024-03-23T10:06:00;8.8;;;1.9;;
69197;SDS011;56311;50.298;8.514;2024-03-23T10:08:00;8.6;;;2.1;;
69197;SDS011;56311;50.298;8.514;2024-03-23T10:10:00;8.1;;;2.0;;
69197;SDS011;56311;50.298;8.514;2024-03-23T10:12:07;9.9;;;2.0;;
69197;SDS011;56311;50.298;8.514;2024-03-23T10:14:00;8.7;;;2.1;;
69197;SDS011;56311;50.298;8.514;2024-03-23T10:16:00;10.8;;;2.2;;
69197;SDS011;56311;50.298;8.514;2024-03-23T10:18:00;10.5;;;1.7;;
69197;SDS011;56311;50.298;8.514;2024-03-23T10:20:00;6.9;;;1.5;;
69197;SDS011;56311;50.298;8.514;2024-03-23T10:22:00;6.9;;;1.6;;
69197;SDS011;56311;50.298;8.514;2024-03-23T10:24:07;6.1;;;1.2;;
69197;SDS011;56311;50.298;8.514;2024-03-23T10:28:00;9.1;;;1.8;;
69197;SDS011;56311;50.298;8.514;2024-03-23T10:30:07;8.0;;;1.6;;
69197;SDS011;56311;50.298;8.514;2024-03-23T10:32:07;7.8;;;1.4;;
69197;SDS011;56311;50.298;8.514;2024-03-23T10:34:00;6.0;;;1.4;;
69197;SDS011;56311;50.298;8.514;2024-03-23T10:36:00;8.6;;;1.6;;
69197;SDS011;56311;50.298;8.514;2024-03-23T10:38:00;9.1;;;1.6;;
69197;SDS011;56311;50.298;8.514;2024-03-23T10:40:00;7.8;;;1.5;;
69197;SDS011;56311;50.298;8.514;2024-03-23T10:42:00;9.4;;;1.7;;
69197;SDS011;56311;50.298;8.514;2024-03-23T10:44:00;7.8;;;1.5;;
69197;SDS011;56311;50.298;8.514;2024-03-23T10:46:00;7.1;;;1.7;;
69197;SDS011;56311;50.298;8.514;2024-03-23T10:48:01;6.8;;;1.3;;
69197;SDS011;56311;50.298;8.514;2024-03-23T10:50:00;9.6;;;1.4;;
69197;SDS011;56311;50.298;8.514;2024-03-23T10:52:00;7.0;;;1.2;;
69197;SDS011;56311;50.298;8.514;2024-03-23T10:54:02;6.9;;;1.2;;
69197;SDS011;56311;50.298;8.514;2024-03-23T10:56:00;7.5;;;1.4;;
69197;SDS011;56311;50.298;8.514;2024-03-23T10:58:00;9.5;;;1.6;;
69197;SDS011;56311;50.298;8.514;2024-03-23T11:00:02;6.4;;;1.4;;
69197;SDS011;56311;50.298;8.514;2024-03-23T11:02:00;7.7;;;1.7;;
69197;SDS011;56311;50.298;8.514;2024-03-23T11:04:00;9.2;;;1.9;;
69197;SDS011;56311;50.298;8.514;2024-03-23T11:06:00;7.1;;;1.7;;
69197;SDS011;56311;50.298;8.514;2024-03-23T11:08:00;8.7;;;1.6;;
69197;SDS011;56311;50.298;8.514;2024-03-23T11:10:00;20.1;;;13.0;;
69197;SDS011;56311;50.298;8.514;2024-03-23T11:20:01;6.0;;;1.8;;
69197;SDS011;56311;50.298;8.514;2024-03-23T11:22:00;9.0;;;1.9;;
69197;SDS011;56311;50.298;8.514;2024-03-23T11:26:00;9.4;;;2.0;;
69197;SDS011;56311;50.298;8.514;2024-03-23T11:28:10;7.7;;;1.7;;
69197;SDS011;56311;50.298;8.514;2024-03-23T11:30:09;8.6;;;2.2;;
69197;SDS011;56311;50.298;8.514;2024-03-23T11:32:03;7.8;;;2.0;;
69197;SDS011;56311;50.298;8.514;2024-03-23T11:34:02;7.8;;;2.0;;
69197;SDS011;56311;50.298;8.514;2024-03-23T11:36:00;8.0;;;1.9;;
69197;SDS011;56311;50.298;8.514;2024-03-23T11:38:04;10.5;;;1.9;;
69197;SDS011;56311;50.298;8.514;2024-03-23T11:40:00;7.9;;;1.9;;
69197;SDS011;56311;50.298;8.514;2024-03-23T11:42:00;6.6;;;1.8;;
69197;SDS011;56311;50.298;8.514;2024-03-23T11:44:10;9.5;;;2.0;;
69197;SDS011;56311;50.298;8.514;2024-03-23T11:46:00;10.3;;;2.1;;
69197;SDS011;56311;50.298;8.514;2024-03-23T11:48:03;9.5;;;2.2;;
69197;SDS011;56311;50.298;8.514;2024-03-23T11:50:00;9.9;;;3.1;;
69197;SDS011;56311;50.298;8.514;2024-03-23T11:52:00;6.8;;;1.9;;
69197;SDS011;56311;50.298;8.514;2024-03-23T11:54:07;10.1;;;2.7;;
69197;SDS011;56311;50.298;8.514;2024-03-23T11:56:00;10.5;;;3.1;;
69197;SDS011;56311;50.298;8.514;2024-03-23T11:58:01;11.6;;;3.2;;
69197;SDS011;56311;50.298;8.514;2024-03-23T12:00:00;8.7;;;3.0;;
69197;SDS011;56311;50.298;8.514;2024-03-23T12:02:04;9.2;;;2.5;;
69197;SDS011;56311;50.298;8.514;2024-03-23T12:04:00;7.0;;;2.6;;
69197;SDS011;56311;50.298;8.514;2024-03-23T12:06:00;7.4;;;2.0;;
69197;SDS011;56311;50.298;8.514;2024-03-23T12:10:03;7.5;;;2.1;;
69197;SDS011;56311;50.298;8.514;2024-03-23T12:12:04;9.6;;;2.6;;
69197;SDS011;56311;50.298;8.514;2024-03-23T12:14:00;6.3;;;2.4;;
69197;SDS011;56311;50.298;8.514;2024-03-23T12:16:08;9.0;;;2.3;;
69197;SDS011;56311;50.298;8.514;2024-03-23T12:18:06;9.8;;;2.2;;
69197;SDS011;56311;50.298;8.514;2024-03-23T12:20:00;65.8;;;54.2;;
69197;SDS011;56311;50.298;8.514;2024-03-23T12:22:00;10.1;;;4.1;;
69197;SDS011;56311;50.298;8.514;2024-03-23T12:24:00;7.4;;;2.4;;
69197;SDS011;56311;50.298;8.514;2024-03-23T12:26:00;9.1;;;2.2;;
69197;SDS011;56311;50.298;8.514;2024-03-23T12:28:00;8.1;;;2.0;;
69197;SDS011;56311;50.298;8.514;2024-03-23T12:30:00;6.7;;;2.2;;
69197;SDS011;56311;50.298;8.514;2024-03-23T12:32:01;6.3;;;1.9;;
69197;SDS011;56311;50.298;8.514;2024-03-23T12:34:00;6.4;;;2.0;;
69197;SDS011;56311;50.298;8.514;2024-03-23T12:36:00;6.0;;;1.8;;
69197;SDS011;56311;50.298;8.514;2024-03-23T12:38:00;7.0;;;1.7;;
69197;SDS011;56311;50.298;8.514;2024-03-23T12:40:00;5.6;;;1.6;;
69197;SDS011;56311;50.298;8.514;2024-03-23T12:42:00;5.2;;;1.4;;
69197;SDS011;56311;50.298;8.514;2024-03-23T12:44:00;3.9;;;1.2;;
69197;SDS011;56311;50.298;8.514;2024-03-23T12:46:00;7.2;;;2.0;;
69197;SDS011;56311;50.298;8.514;2024-03-23T12:48:00;7.3;;;2.6;;
69197;SDS011;56311;50.298;8.514;2024-03-23T12:50:01;9.6;;;5.4;;
69197;SDS011;56311;50.298;8.514;2024-03-23T12:52:00;6.7;;;2.7;;
69197;SDS011;56311;50.298;8.514;2024-03-23T12:54:00;7.2;;;3.6;;
69197;SDS011;56311;50.298;8.514;2024-03-23T12:56:00;5.4;;;1.9;;
69197;SDS011;56311;50.298;8.514;2024-03-23T12:58:00;5.6;;;1.6;;
69197;SDS011;56311;50.298;8.514;2024-03-23T13:00:02;9.5;;;3.9;;
69197;SDS011;56311;50.298;8.514;2024-03-23T13:02:00;8.7;;;2.6;;
69197;SDS011;56311;50.298;8.514;2024-03-23T13:04:00;8.7;;;3.4;;
69197;SDS011;56311;50.298;8.514;2024-03-23T13:06:00;8.0;;;3.3;;
69197;SDS011;56311;50.298;8.514;2024-03-23T13:08:00;7.2;;;3.4;;
69197;SDS011;56311;50.298;8.514;2024-03-23T13:10:00;6.3;;;2.6;;
69197;SDS011;56311;50.298;8.514;2024-03-23T13:12:01;5.8;;;3.0;;
69197;SDS011;56311;50.298;8.514;2024-03-23T13:14:00;151.0;;;107.9;;
69197;SDS011;56311;50.298;8.514;2024-03-23T13:16:00;10.6;;;5.8;;
69197;SDS011;56311;50.298;8.514;2024-03-23T13:18:00;13.0;;;7.2;;
69197;SDS011;56311;50.298;8.514;2024-03-23T13:20:00;7.3;;;2.6;;
69197;SDS011;56311;50.298;8.514;2024-03-23T13:22:00;5.4;;;1.7;;
69197;SDS011;56311;50.298;8.514;2024-03-23T13:24:00;4.4;;;1.5;;